sensor_id;sensor_type;location;lat;lon;timestamp;temperature;humidity
53978;DHT22;39886;47.984;-1.586;2024-01-27T00:01:11;17.90;67.80
53978;DHT22;39886;47.984;-1.586;2024-01-27T00:03:36;17.90;68.50
53978;DHT22;39886;47.984;-1.586;2024-01-27T00:06:02;17.80;67.80
53978;DHT22;39886;47.984;-1.586;2024-01-27T00:08:27;17.80;67.80
53978;DHT22;39886;47.984;-1.586;2024-01-27T00:10:53;17.80;68.00
53978;DHT22;39886;47.984;-1.586;2024-01-27T00:13:19;17.80;68.00
53978;DHT22;39886;47.984;-1.586;2024-01-27T00:15:44;17.80;68.00
53978;DHT22;39886;47.984;-1.586;2024-01-27T00:18:10;17.80;68.10
53978;DHT22;39886;47.984;-1.586;2024-01-27T00:20:36;17.80;68.10
53978;DHT22;39886;47.984;-1.586;2024-01-27T00:23:03;17.80;68.20
53978;DHT22;39886;47.984;-1.586;2024-01-27T00:25:29;17.80;68.20
53978;DHT22;39886;47.984;-1.586;2024-01-27T00:27:54;17.70;68.10
53978;DHT22;39886;47.984;-1.586;2024-01-27T00:30:20;17.70;68.10
53978;DHT22;39886;47.984;-1.586;2024-01-27T00:32:45;17.80;68.30
53978;DHT22;39886;47.984;-1.586;2024-01-27T00:35:11;17.80;68.30
53978;DHT22;39886;47.984;-1.586;2024-01-27T00:37:40;17.80;68.30
53978;DHT22;39886;47.984;-1.586;2024-01-27T00:40:09;17.80;68.40
53978;DHT22;39886;47.984;-1.586;2024-01-27T00:42:35;17.70;68.30
53978;DHT22;39886;47.984;-1.586;2024-01-27T00:45:00;17.70;68.40
53978;DHT22;39886;47.984;-1.586;2024-01-27T00:47:26;17.70;68.50
53978;DHT22;39886;47.984;-1.586;2024-01-27T00:49:51;17.70;68.50
53978;DHT22;39886;47.984;-1.586;2024-01-27T00:52:19;17.70;68.60
53978;DHT22;39886;47.984;-1.586;2024-01-27T00:54:44;17.70;68.60
53978;DHT22;39886;47.984;-1.586;2024-01-27T00:57:10;17.70;68.60
53978;DHT22;39886;47.984;-1.586;2024-01-27T00:59:36;17.70;69.40
53978;DHT22;39886;47.984;-1.586;2024-01-27T01:02:01;17.70;70.60
53978;DHT22;39886;47.984;-1.586;2024-01-27T01:04:27;17.70;69.80
53978;DHT22;39886;47.984;-1.586;2024-01-27T01:06:53;17.70;70.00
53978;DHT22;39886;47.984;-1.586;2024-01-27T01:09:18;17.70;70.00
53978;DHT22;39886;47.984;-1.586;2024-01-27T01:11:44;17.70;70.00
53978;DHT22;39886;47.984;-1.586;2024-01-27T01:14:09;17.70;70.00
53978;DHT22;39886;47.984;-1.586;2024-01-27T01:16:35;17.70;70.00
53978;DHT22;39886;47.984;-1.586;2024-01-27T01:19:00;17.70;70.00
53978;DHT22;39886;47.984;-1.586;2024-01-27T01:21:26;17.60;71.20
53978;DHT22;39886;47.984;-1.586;2024-01-27T01:23:52;17.70;70.40
53978;DHT22;39886;47.984;-1.586;2024-01-27T01:26:17;17.60;70.70
53978;DHT22;39886;47.984;-1.586;2024-01-27T01:28:43;17.70;70.90
53978;DHT22;39886;47.984;-1.586;2024-01-27T01:31:09;17.60;71.10
53978;DHT22;39886;47.984;-1.586;2024-01-27T01:33:34;17.70;71.50
53978;DHT22;39886;47.984;-1.586;2024-01-27T01:36:00;17.70;72.00
53978;DHT22;39886;47.984;-1.586;2024-01-27T01:38:25;17.60;72.90
53978;DHT22;39886;47.984;-1.586;2024-01-27T01:40:51;17.60;74.00
53978;DHT22;39886;47.984;-1.586;2024-01-27T01:43:16;17.60;75.80
53978;DHT22;39886;47.984;-1.586;2024-01-27T01:45:42;17.60;76.20
53978;DHT22;39886;47.984;-1.586;2024-01-27T01:48:08;17.60;76.20
53978;DHT22;39886;47.984;-1.586;2024-01-27T01:50:34;17.60;76.10
53978;DHT22;39886;47.984;-1.586;2024-01-27T01:52:59;17.60;76.00
53978;DHT22;39886;47.984;-1.586;2024-01-27T01:55:26;17.60;75.90
53978;DHT22;39886;47.984;-1.586;2024-01-27T01:57:51;17.60;75.90
53978;DHT22;39886;47.984;-1.586;2024-01-27T02:00:17;17.50;75.80
53978;DHT22;39886;47.984;-1.586;2024-01-27T02:02:46;17.50;75.80
53978;DHT22;39886;47.984;-1.586;2024-01-27T02:05:12;17.50;75.80
53978;DHT22;39886;47.984;-1.586;2024-01-27T02:07:37;17.50;75.70
53978;DHT22;39886;47.984;-1.586;2024-01-27T02:10:03;17.50;75.60
53978;DHT22;39886;47.984;-1.586;2024-01-27T02:12:29;17.50;75.60
53978;DHT22;39886;47.984;-1.586;2024-01-27T02:14:54;17.50;75.60
53978;DHT22;39886;47.984;-1.586;2024-01-27T02:17:20;17.50;75.50
53978;DHT22;39886;47.984;-1.586;2024-01-27T02:19:45;17.50;76.20
53978;DHT22;39886;47.984;-1.586;2024-01-27T02:22:11;17.50;75.50
53978;DHT22;39886;47.984;-1.586;2024-01-27T02:24:36;17.50;75.50
53978;DHT22;39886;47.984;-1.586;2024-01-27T02:27:02;17.50;75.50
53978;DHT22;39886;47.984;-1.586;2024-01-27T02:29:28;17.40;75.50
53978;DHT22;39886;47.984;-1.586;2024-01-27T02:31:53;17.40;75.50
53978;DHT22;39886;47.984;-1.586;2024-01-27T02:34:19;17.40;75.40
53978;DHT22;39886;47.984;-1.586;2024-01-27T02:36:45;17.40;75.50
53978;DHT22;39886;47.984;-1.586;2024-01-27T02:39:10;17.40;75.40
53978;DHT22;39886;47.984;-1.586;2024-01-27T02:41:36;17.40;75.50
53978;DHT22;39886;47.984;-1.586;2024-01-27T02:44:04;17.40;75.50
53978;DHT22;39886;47.984;-1.586;2024-01-27T02:46:30;17.40;75.50
53978;DHT22;39886;47.984;-1.586;2024-01-27T02:48:56;17.40;75.50
53978;DHT22;39886;47.984;-1.586;2024-01-27T02:51:21;17.40;75.50
53978;DHT22;39886;47.984;-1.586;2024-01-27T02:53:47;17.40;75.50
53978;DHT22;39886;47.984;-1.586;2024-01-27T02:56:12;17.40;75.50
53978;DHT22;39886;47.984;-1.586;2024-01-27T02:58:38;17.40;75.50
53978;DHT22;39886;47.984;-1.586;2024-01-27T03:01:03;17.40;75.50
53978;DHT22;39886;47.984;-1.586;2024-01-27T03:03:29;17.40;75.50
53978;DHT22;39886;47.984;-1.586;2024-01-27T03:05:55;17.40;75.50
53978;DHT22;39886;47.984;-1.586;2024-01-27T03:08:21;17.40;75.50
53978;DHT22;39886;47.984;-1.586;2024-01-27T03:10:46;17.30;75.50
53978;DHT22;39886;47.984;-1.586;2024-01-27T03:13:12;17.40;75.50
53978;DHT22;39886;47.984;-1.586;2024-01-27T03:15:38;17.30;75.50
53978;DHT22;39886;47.984;-1.586;2024-01-27T03:18:03;17.30;75.50
53978;DHT22;39886;47.984;-1.586;2024-01-27T03:20:29;17.30;75.50
53978;DHT22;39886;47.984;-1.586;2024-01-27T03:22:56;17.30;75.50
53978;DHT22;39886;47.984;-1.586;2024-01-27T03:25:23;17.30;75.50
53978;DHT22;39886;47.984;-1.586;2024-01-27T03:27:51;17.30;75.40
53978;DHT22;39886;47.984;-1.586;2024-01-27T03:30:17;17.30;75.50
53978;DHT22;39886;47.984;-1.586;2024-01-27T03:32:42;17.30;75.50
53978;DHT22;39886;47.984;-1.586;2024-01-27T03:35:08;17.30;75.60
53978;DHT22;39886;47.984;-1.586;2024-01-27T03:37:33;17.30;75.50
53978;DHT22;39886;47.984;-1.586;2024-01-27T03:40:00;17.30;75.60
53978;DHT22;39886;47.984;-1.586;2024-01-27T03:42:25;17.30;75.60
53978;DHT22;39886;47.984;-1.586;2024-01-27T03:44:51;17.30;75.60
53978;DHT22;39886;47.984;-1.586;2024-01-27T03:47:17;17.30;75.60
53978;DHT22;39886;47.984;-1.586;2024-01-27T03:49:43;17.30;75.60
53978;DHT22;39886;47.984;-1.586;2024-01-27T03:52:08;17.30;75.60
53978;DHT22;39886;47.984;-1.586;2024-01-27T03:54:34;17.30;75.60
53978;DHT22;39886;47.984;-1.586;2024-01-27T03:56:59;17.30;75.60
53978;DHT22;39886;47.984;-1.586;2024-01-27T03:59:25;17.30;75.60
53978;DHT22;39886;47.984;-1.586;2024-01-27T04:01:50;17.30;75.60
53978;DHT22;39886;47.984;-1.586;2024-01-27T04:04:16;17.20;75.60
53978;DHT22;39886;47.984;-1.586;2024-01-27T04:06:42;17.20;75.60
53978;DHT22;39886;47.984;-1.586;2024-01-27T04:09:07;17.20;75.60
53978;DHT22;39886;47.984;-1.586;2024-01-27T04:11:36;17.20;75.60
53978;DHT22;39886;47.984;-1.586;2024-01-27T04:14:03;17.20;75.60
53978;DHT22;39886;47.984;-1.586;2024-01-27T04:16:28;17.20;75.60
53978;DHT22;39886;47.984;-1.586;2024-01-27T04:18:54;17.20;75.70
53978;DHT22;39886;47.984;-1.586;2024-01-27T04:21:20;17.20;75.70
53978;DHT22;39886;47.984;-1.586;2024-01-27T04:23:46;17.20;75.60
53978;DHT22;39886;47.984;-1.586;2024-01-27T04:26:11;17.20;75.70
53978;DHT22;39886;47.984;-1.586;2024-01-27T04:28:37;17.20;75.60
53978;DHT22;39886;47.984;-1.586;2024-01-27T04:31:02;17.20;75.70
53978;DHT22;39886;47.984;-1.586;2024-01-27T04:33:28;17.20;75.70
53978;DHT22;39886;47.984;-1.586;2024-01-27T04:35:54;17.20;75.70
53978;DHT22;39886;47.984;-1.586;2024-01-27T04:38:19;17.20;75.80
53978;DHT22;39886;47.984;-1.586;2024-01-27T04:40:45;17.20;75.80
53978;DHT22;39886;47.984;-1.586;2024-01-27T04:43:14;17.20;75.80
53978;DHT22;39886;47.984;-1.586;2024-01-27T04:45:40;17.20;75.80
53978;DHT22;39886;47.984;-1.586;2024-01-27T04:48:05;17.20;75.90
53978;DHT22;39886;47.984;-1.586;2024-01-27T04:50:31;17.20;75.90
53978;DHT22;39886;47.984;-1.586;2024-01-27T04:52:56;17.20;75.90
53978;DHT22;39886;47.984;-1.586;2024-01-27T04:55:22;17.10;75.90
53978;DHT22;39886;47.984;-1.586;2024-01-27T04:57:47;17.20;76.00
53978;DHT22;39886;47.984;-1.586;2024-01-27T05:00:13;17.10;76.00
53978;DHT22;39886;47.984;-1.586;2024-01-27T05:02:39;17.10;76.00
53978;DHT22;39886;47.984;-1.586;2024-01-27T05:05:06;17.10;76.00
53978;DHT22;39886;47.984;-1.586;2024-01-27T05:07:32;17.10;76.00
53978;DHT22;39886;47.984;-1.586;2024-01-27T05:09:57;17.10;76.10
53978;DHT22;39886;47.984;-1.586;2024-01-27T05:12:23;17.10;76.10
53978;DHT22;39886;47.984;-1.586;2024-01-27T05:14:48;17.10;76.10
53978;DHT22;39886;47.984;-1.586;2024-01-27T05:17:14;17.10;76.30
53978;DHT22;39886;47.984;-1.586;2024-01-27T05:19:40;17.10;76.30
53978;DHT22;39886;47.984;-1.586;2024-01-27T05:22:05;17.10;76.30
53978;DHT22;39886;47.984;-1.586;2024-01-27T05:24:31;17.10;76.40
53978;DHT22;39886;47.984;-1.586;2024-01-27T05:26:56;17.10;76.40
53978;DHT22;39886;47.984;-1.586;2024-01-27T05:29:22;17.10;76.40
53978;DHT22;39886;47.984;-1.586;2024-01-27T05:31:47;17.10;76.50
53978;DHT22;39886;47.984;-1.586;2024-01-27T05:34:13;17.10;76.70
53978;DHT22;39886;47.984;-1.586;2024-01-27T05:36:40;17.10;76.80
53978;DHT22;39886;47.984;-1.586;2024-01-27T05:39:05;17.10;77.00
53978;DHT22;39886;47.984;-1.586;2024-01-27T05:41:32;17.10;77.20
53978;DHT22;39886;47.984;-1.586;2024-01-27T05:43:57;17.10;77.30
53978;DHT22;39886;47.984;-1.586;2024-01-27T05:46:25;17.10;77.50
53978;DHT22;39886;47.984;-1.586;2024-01-27T05:48:51;17.10;77.90
53978;DHT22;39886;47.984;-1.586;2024-01-27T05:51:21;17.10;78.60
53978;DHT22;39886;47.984;-1.586;2024-01-27T05:53:48;17.10;79.80
53978;DHT22;39886;47.984;-1.586;2024-01-27T05:56:13;17.10;81.00
53978;DHT22;39886;47.984;-1.586;2024-01-27T05:58:39;17.10;81.00
53978;DHT22;39886;47.984;-1.586;2024-01-27T06:01:04;17.10;80.90
53978;DHT22;39886;47.984;-1.586;2024-01-27T06:03:30;17.10;80.10
53978;DHT22;39886;47.984;-1.586;2024-01-27T06:05:56;17.00;78.80
53978;DHT22;39886;47.984;-1.586;2024-01-27T06:08:22;17.00;79.20
53978;DHT22;39886;47.984;-1.586;2024-01-27T06:10:47;17.00;79.70
53978;DHT22;39886;47.984;-1.586;2024-01-27T06:13:13;17.00;77.60
53978;DHT22;39886;47.984;-1.586;2024-01-27T06:15:38;17.00;78.40
53978;DHT22;39886;47.984;-1.586;2024-01-27T06:18:04;17.00;78.40
53978;DHT22;39886;47.984;-1.586;2024-01-27T06:20:30;17.00;78.60
53978;DHT22;39886;47.984;-1.586;2024-01-27T06:22:55;17.00;78.80
53978;DHT22;39886;47.984;-1.586;2024-01-27T06:25:21;17.00;78.70
53978;DHT22;39886;47.984;-1.586;2024-01-27T06:27:46;17.00;77.40
53978;DHT22;39886;47.984;-1.586;2024-01-27T06:30:12;17.00;77.50
53978;DHT22;39886;47.984;-1.586;2024-01-27T06:32:38;17.00;78.00
53978;DHT22;39886;47.984;-1.586;2024-01-27T06:35:04;17.00;78.40
53978;DHT22;39886;47.984;-1.586;2024-01-27T06:37:29;17.00;79.30
53978;DHT22;39886;47.984;-1.586;2024-01-27T06:39:55;17.00;80.10
53978;DHT22;39886;47.984;-1.586;2024-01-27T06:42:21;17.00;79.30
53978;DHT22;39886;47.984;-1.586;2024-01-27T06:44:46;17.00;79.60
53978;DHT22;39886;47.984;-1.586;2024-01-27T06:47:12;16.90;79.60
53978;DHT22;39886;47.984;-1.586;2024-01-27T06:49:37;16.90;79.70
53978;DHT22;39886;47.984;-1.586;2024-01-27T06:52:03;17.00;78.40
53978;DHT22;39886;47.984;-1.586;2024-01-27T06:54:29;16.90;79.10
53978;DHT22;39886;47.984;-1.586;2024-01-27T06:56:54;16.90;80.20
53978;DHT22;39886;47.984;-1.586;2024-01-27T06:59:20;16.90;80.60
53978;DHT22;39886;47.984;-1.586;2024-01-27T07:01:46;16.90;79.80
53978;DHT22;39886;47.984;-1.586;2024-01-27T07:04:13;16.90;79.90
53978;DHT22;39886;47.984;-1.586;2024-01-27T07:06:39;16.90;79.60
53978;DHT22;39886;47.984;-1.586;2024-01-27T07:09:05;16.90;77.80
53978;DHT22;39886;47.984;-1.586;2024-01-27T07:11:32;16.90;78.00
53978;DHT22;39886;47.984;-1.586;2024-01-27T07:13:57;16.90;78.40
53978;DHT22;39886;47.984;-1.586;2024-01-27T07:16:23;16.90;78.90
53978;DHT22;39886;47.984;-1.586;2024-01-27T07:18:49;16.90;79.50
53978;DHT22;39886;47.984;-1.586;2024-01-27T07:21:15;16.90;80.40
53978;DHT22;39886;47.984;-1.586;2024-01-27T07:23:44;16.90;80.50
53978;DHT22;39886;47.984;-1.586;2024-01-27T07:26:10;16.90;79.70
53978;DHT22;39886;47.984;-1.586;2024-01-27T07:28:36;16.90;78.00
53978;DHT22;39886;47.984;-1.586;2024-01-27T07:31:02;16.90;77.60
53978;DHT22;39886;47.984;-1.586;2024-01-27T07:33:27;16.90;77.50
53978;DHT22;39886;47.984;-1.586;2024-01-27T07:35:53;16.90;77.50
53978;DHT22;39886;47.984;-1.586;2024-01-27T07:38:18;16.80;77.50
53978;DHT22;39886;47.984;-1.586;2024-01-27T07:40:44;16.80;77.60
53978;DHT22;39886;47.984;-1.586;2024-01-27T07:43:10;16.90;77.70
53978;DHT22;39886;47.984;-1.586;2024-01-27T07:45:35;16.90;77.80
53978;DHT22;39886;47.984;-1.586;2024-01-27T07:48:01;16.90;77.80
53978;DHT22;39886;47.984;-1.586;2024-01-27T07:50:26;16.80;77.80
53978;DHT22;39886;47.984;-1.586;2024-01-27T07:52:52;16.80;77.90
53978;DHT22;39886;47.984;-1.586;2024-01-27T07:55:18;16.80;78.10
53978;DHT22;39886;47.984;-1.586;2024-01-27T07:57:43;16.80;78.20
53978;DHT22;39886;47.984;-1.586;2024-01-27T08:00:09;16.80;78.20
53978;DHT22;39886;47.984;-1.586;2024-01-27T08:02:35;16.80;78.40
53978;DHT22;39886;47.984;-1.586;2024-01-27T08:05:02;16.80;78.60
53978;DHT22;39886;47.984;-1.586;2024-01-27T08:07:29;16.80;79.00
53978;DHT22;39886;47.984;-1.586;2024-01-27T08:09:54;16.80;80.10
53978;DHT22;39886;47.984;-1.586;2024-01-27T08:12:22;16.80;81.50
53978;DHT22;39886;47.984;-1.586;2024-01-27T08:14:47;16.80;79.40
53978;DHT22;39886;47.984;-1.586;2024-01-27T08:17:13;16.80;77.30
53978;DHT22;39886;47.984;-1.586;2024-01-27T08:19:39;16.80;77.30
53978;DHT22;39886;47.984;-1.586;2024-01-27T08:22:04;16.80;77.60
53978;DHT22;39886;47.984;-1.586;2024-01-27T08:24:30;16.80;77.80
53978;DHT22;39886;47.984;-1.586;2024-01-27T08:26:55;16.80;78.10
53978;DHT22;39886;47.984;-1.586;2024-01-27T08:29:21;16.80;78.50
53978;DHT22;39886;47.984;-1.586;2024-01-27T08:31:47;16.80;78.90
53978;DHT22;39886;47.984;-1.586;2024-01-27T08:34:12;16.80;80.00
53978;DHT22;39886;47.984;-1.586;2024-01-27T08:36:38;16.80;80.50
53978;DHT22;39886;47.984;-1.586;2024-01-27T08:39:03;16.80;81.30
53978;DHT22;39886;47.984;-1.586;2024-01-27T08:41:31;16.70;66.10
53978;DHT22;39886;47.984;-1.586;2024-01-27T08:43:56;16.70;66.70
53978;DHT22;39886;47.984;-1.586;2024-01-27T08:46:22;16.70;66.60
53978;DHT22;39886;47.984;-1.586;2024-01-27T08:48:48;16.70;66.70
53978;DHT22;39886;47.984;-1.586;2024-01-27T08:51:13;16.70;66.60
53978;DHT22;39886;47.984;-1.586;2024-01-27T08:53:41;16.70;66.70
53978;DHT22;39886;47.984;-1.586;2024-01-27T08:56:07;16.70;66.70
53978;DHT22;39886;47.984;-1.586;2024-01-27T08:58:33;16.70;66.60
53978;DHT22;39886;47.984;-1.586;2024-01-27T09:00:58;16.70;66.70
53978;DHT22;39886;47.984;-1.586;2024-01-27T09:03:27;16.70;66.60
53978;DHT22;39886;47.984;-1.586;2024-01-27T09:05:52;16.70;66.60
53978;DHT22;39886;47.984;-1.586;2024-01-27T09:08:18;16.70;67.30
53978;DHT22;39886;47.984;-1.586;2024-01-27T09:10:44;16.70;66.60
53978;DHT22;39886;47.984;-1.586;2024-01-27T09:13:09;16.70;66.60
53978;DHT22;39886;47.984;-1.586;2024-01-27T09:15:35;16.70;66.60
53978;DHT22;39886;47.984;-1.586;2024-01-27T09:18:00;16.80;66.60
53978;DHT22;39886;47.984;-1.586;2024-01-27T09:20:26;16.70;66.60
53978;DHT22;39886;47.984;-1.586;2024-01-27T09:22:51;16.80;66.60
53978;DHT22;39886;47.984;-1.586;2024-01-27T09:25:17;16.70;66.50
53978;DHT22;39886;47.984;-1.586;2024-01-27T09:27:43;16.80;66.60
53978;DHT22;39886;47.984;-1.586;2024-01-27T09:30:08;16.80;66.50
53978;DHT22;39886;47.984;-1.586;2024-01-27T09:32:34;16.80;66.50
53978;DHT22;39886;47.984;-1.586;2024-01-27T09:34:59;16.80;66.50
53978;DHT22;39886;47.984;-1.586;2024-01-27T09:37:25;16.70;66.50
53978;DHT22;39886;47.984;-1.586;2024-01-27T09:39:51;16.80;66.50
53978;DHT22;39886;47.984;-1.586;2024-01-27T09:42:16;16.80;66.40
53978;DHT22;39886;47.984;-1.586;2024-01-27T09:44:45;16.80;66.40
53978;DHT22;39886;47.984;-1.586;2024-01-27T09:47:13;16.80;66.40
53978;DHT22;39886;47.984;-1.586;2024-01-27T09:49:39;16.80;66.40
53978;DHT22;39886;47.984;-1.586;2024-01-27T09:52:05;16.80;66.40
53978;DHT22;39886;47.984;-1.586;2024-01-27T09:54:30;16.80;66.40
53978;DHT22;39886;47.984;-1.586;2024-01-27T09:56:56;16.80;66.40
53978;DHT22;39886;47.984;-1.586;2024-01-27T09:59:22;16.80;66.40
53978;DHT22;39886;47.984;-1.586;2024-01-27T10:01:48;16.80;66.40
53978;DHT22;39886;47.984;-1.586;2024-01-27T10:04:14;16.80;66.40
53978;DHT22;39886;47.984;-1.586;2024-01-27T10:06:40;16.80;66.30
53978;DHT22;39886;47.984;-1.586;2024-01-27T10:09:06;16.80;66.30
53978;DHT22;39886;47.984;-1.586;2024-01-27T10:11:33;16.80;66.40
53978;DHT22;39886;47.984;-1.586;2024-01-27T10:14:00;16.90;66.30
53978;DHT22;39886;47.984;-1.586;2024-01-27T10:16:26;16.90;66.30
53978;DHT22;39886;47.984;-1.586;2024-01-27T10:18:59;16.80;66.90
53978;DHT22;39886;47.984;-1.586;2024-01-27T10:21:24;16.90;66.30
53978;DHT22;39886;47.984;-1.586;2024-01-27T10:23:51;16.90;66.30
53978;DHT22;39886;47.984;-1.586;2024-01-27T10:26:17;16.90;66.20
53978;DHT22;39886;47.984;-1.586;2024-01-27T10:28:56;16.90;66.20
53978;DHT22;39886;47.984;-1.586;2024-01-27T10:31:26;16.90;66.20
53978;DHT22;39886;47.984;-1.586;2024-01-27T10:33:52;16.90;66.20
53978;DHT22;39886;47.984;-1.586;2024-01-27T10:36:18;16.90;66.20
53978;DHT22;39886;47.984;-1.586;2024-01-27T10:38:44;16.90;66.20
53978;DHT22;39886;47.984;-1.586;2024-01-27T10:41:10;16.90;66.20
53978;DHT22;39886;47.984;-1.586;2024-01-27T10:43:36;16.90;66.20
53978;DHT22;39886;47.984;-1.586;2024-01-27T10:46:08;16.90;66.10
53978;DHT22;39886;47.984;-1.586;2024-01-27T10:48:34;16.90;66.10
53978;DHT22;39886;47.984;-1.586;2024-01-27T10:51:00;16.90;66.10
53978;DHT22;39886;47.984;-1.586;2024-01-27T10:53:28;16.90;66.00
53978;DHT22;39886;47.984;-1.586;2024-01-27T10:55:57;17.00;66.70
53978;DHT22;39886;47.984;-1.586;2024-01-27T10:58:23;17.00;66.00
53978;DHT22;39886;47.984;-1.586;2024-01-27T11:00:49;16.90;66.00
53978;DHT22;39886;47.984;-1.586;2024-01-27T11:03:15;17.00;66.00
53978;DHT22;39886;47.984;-1.586;2024-01-27T11:05:43;17.00;66.00
53978;DHT22;39886;47.984;-1.586;2024-01-27T11:08:12;17.00;65.90
53978;DHT22;39886;47.984;-1.586;2024-01-27T11:10:38;17.00;65.90
53978;DHT22;39886;47.984;-1.586;2024-01-27T11:13:04;17.00;65.90
53978;DHT22;39886;47.984;-1.586;2024-01-27T11:15:30;17.00;65.90
53978;DHT22;39886;47.984;-1.586;2024-01-27T11:17:58;17.00;65.80
53978;DHT22;39886;47.984;-1.586;2024-01-27T11:20:32;17.10;65.80
53978;DHT22;39886;47.984;-1.586;2024-01-27T11:23:16;17.10;65.80
53978;DHT22;39886;47.984;-1.586;2024-01-27T11:25:41;17.10;65.80
53978;DHT22;39886;47.984;-1.586;2024-01-27T11:28:14;17.10;65.80
53978;DHT22;39886;47.984;-1.586;2024-01-27T11:30:49;17.10;65.70
53978;DHT22;39886;47.984;-1.586;2024-01-27T11:33:15;17.10;65.70
53978;DHT22;39886;47.984;-1.586;2024-01-27T11:35:40;17.20;65.70
53978;DHT22;39886;47.984;-1.586;2024-01-27T11:38:06;17.20;65.70
53978;DHT22;39886;47.984;-1.586;2024-01-27T11:40:32;17.20;65.70
53978;DHT22;39886;47.984;-1.586;2024-01-27T11:42:59;17.20;65.60
53978;DHT22;39886;47.984;-1.586;2024-01-27T11:45:25;17.20;65.60
53978;DHT22;39886;47.984;-1.586;2024-01-27T11:47:52;17.20;65.60
53978;DHT22;39886;47.984;-1.586;2024-01-27T11:50:18;17.30;65.50
53978;DHT22;39886;47.984;-1.586;2024-01-27T11:52:44;17.20;65.50
53978;DHT22;39886;47.984;-1.586;2024-01-27T11:55:09;17.30;65.50
53978;DHT22;39886;47.984;-1.586;2024-01-27T11:57:35;17.30;65.50
53978;DHT22;39886;47.984;-1.586;2024-01-27T12:00:00;17.30;65.40
53978;DHT22;39886;47.984;-1.586;2024-01-27T12:02:26;17.30;65.40
53978;DHT22;39886;47.984;-1.586;2024-01-27T12:04:52;17.30;65.40
53978;DHT22;39886;47.984;-1.586;2024-01-27T12:07:18;17.30;65.30
53978;DHT22;39886;47.984;-1.586;2024-01-27T12:09:50;17.40;65.40
53978;DHT22;39886;47.984;-1.586;2024-01-27T12:12:16;17.40;65.30
53978;DHT22;39886;47.984;-1.586;2024-01-27T12:14:44;17.40;65.30
53978;DHT22;39886;47.984;-1.586;2024-01-27T12:17:10;17.40;65.30
53978;DHT22;39886;47.984;-1.586;2024-01-27T12:19:36;17.40;65.20
53978;DHT22;39886;47.984;-1.586;2024-01-27T12:22:02;17.40;65.20
53978;DHT22;39886;47.984;-1.586;2024-01-27T12:24:28;17.50;65.20
53978;DHT22;39886;47.984;-1.586;2024-01-27T12:26:55;17.50;65.10
53978;DHT22;39886;47.984;-1.586;2024-01-27T12:29:22;17.50;65.10
53978;DHT22;39886;47.984;-1.586;2024-01-27T12:31:47;17.50;65.10
53978;DHT22;39886;47.984;-1.586;2024-01-27T12:34:13;17.50;65.00
53978;DHT22;39886;47.984;-1.586;2024-01-27T12:36:42;17.50;65.00
53978;DHT22;39886;47.984;-1.586;2024-01-27T12:39:08;17.50;65.10
53978;DHT22;39886;47.984;-1.586;2024-01-27T12:41:34;17.50;65.00
53978;DHT22;39886;47.984;-1.586;2024-01-27T12:44:00;17.50;65.00
53978;DHT22;39886;47.984;-1.586;2024-01-27T12:46:26;17.50;65.00
53978;DHT22;39886;47.984;-1.586;2024-01-27T12:48:52;17.60;65.00
53978;DHT22;39886;47.984;-1.586;2024-01-27T12:51:18;17.60;65.10
53978;DHT22;39886;47.984;-1.586;2024-01-27T12:53:44;17.60;65.00
53978;DHT22;39886;47.984;-1.586;2024-01-27T12:56:13;17.60;65.00
53978;DHT22;39886;47.984;-1.586;2024-01-27T12:58:40;17.60;65.00
53978;DHT22;39886;47.984;-1.586;2024-01-27T13:01:06;17.70;65.00
53978;DHT22;39886;47.984;-1.586;2024-01-27T13:03:31;17.70;65.10
53978;DHT22;39886;47.984;-1.586;2024-01-27T13:05:57;17.70;65.00
53978;DHT22;39886;47.984;-1.586;2024-01-27T13:08:22;17.70;65.00
53978;DHT22;39886;47.984;-1.586;2024-01-27T13:10:48;17.70;65.00
53978;DHT22;39886;47.984;-1.586;2024-01-27T13:13:14;17.70;64.90
53978;DHT22;39886;47.984;-1.586;2024-01-27T13:15:39;17.70;64.90
53978;DHT22;39886;47.984;-1.586;2024-01-27T13:18:05;17.70;64.80
53978;DHT22;39886;47.984;-1.586;2024-01-27T13:20:31;17.70;64.80
53978;DHT22;39886;47.984;-1.586;2024-01-27T13:22:58;17.80;64.90
53978;DHT22;39886;47.984;-1.586;2024-01-27T13:25:23;17.80;64.80
53978;DHT22;39886;47.984;-1.586;2024-01-27T13:27:49;17.80;64.70
53978;DHT22;39886;47.984;-1.586;2024-01-27T13:30:15;17.80;64.10
53978;DHT22;39886;47.984;-1.586;2024-01-27T13:32:43;17.80;64.00
53978;DHT22;39886;47.984;-1.586;2024-01-27T13:35:08;17.80;64.00
53978;DHT22;39886;47.984;-1.586;2024-01-27T13:37:34;17.90;63.90
53978;DHT22;39886;47.984;-1.586;2024-01-27T13:40:00;17.90;63.80
53978;DHT22;39886;47.984;-1.586;2024-01-27T13:42:25;17.90;63.80
53978;DHT22;39886;47.984;-1.586;2024-01-27T13:44:51;17.90;63.80
53978;DHT22;39886;47.984;-1.586;2024-01-27T13:47:17;17.90;63.80
53978;DHT22;39886;47.984;-1.586;2024-01-27T13:49:43;17.90;63.70
53978;DHT22;39886;47.984;-1.586;2024-01-27T13:52:08;17.90;63.70
53978;DHT22;39886;47.984;-1.586;2024-01-27T13:54:34;17.90;63.70
53978;DHT22;39886;47.984;-1.586;2024-01-27T13:57:00;17.90;63.80
53978;DHT22;39886;47.984;-1.586;2024-01-27T13:59:26;17.90;63.80
53978;DHT22;39886;47.984;-1.586;2024-01-27T14:01:52;18.00;63.90
53978;DHT22;39886;47.984;-1.586;2024-01-27T14:04:18;17.90;64.10
53978;DHT22;39886;47.984;-1.586;2024-01-27T14:06:44;17.90;64.80
53978;DHT22;39886;47.984;-1.586;2024-01-27T14:09:10;17.90;64.10
53978;DHT22;39886;47.984;-1.586;2024-01-27T14:11:35;17.90;64.10
53978;DHT22;39886;47.984;-1.586;2024-01-27T14:14:01;17.90;64.10
53978;DHT22;39886;47.984;-1.586;2024-01-27T14:16:26;18.00;64.00
53978;DHT22;39886;47.984;-1.586;2024-01-27T14:18:53;17.90;64.10
53978;DHT22;39886;47.984;-1.586;2024-01-27T14:21:19;17.90;64.00
53978;DHT22;39886;47.984;-1.586;2024-01-27T14:23:45;17.90;64.00
53978;DHT22;39886;47.984;-1.586;2024-01-27T14:26:10;17.90;64.00
53978;DHT22;39886;47.984;-1.586;2024-01-27T14:28:40;17.90;64.70
53978;DHT22;39886;47.984;-1.586;2024-01-27T14:31:06;17.90;64.00
53978;DHT22;39886;47.984;-1.586;2024-01-27T14:33:31;17.90;64.00
53978;DHT22;39886;47.984;-1.586;2024-01-27T14:35:57;18.00;64.10
53978;DHT22;39886;47.984;-1.586;2024-01-27T14:38:24;17.90;64.10
53978;DHT22;39886;47.984;-1.586;2024-01-27T14:40:49;17.90;64.00
53978;DHT22;39886;47.984;-1.586;2024-01-27T14:43:15;18.00;64.00
53978;DHT22;39886;47.984;-1.586;2024-01-27T14:45:43;18.00;64.00
53978;DHT22;39886;47.984;-1.586;2024-01-27T14:48:11;18.00;64.00
53978;DHT22;39886;47.984;-1.586;2024-01-27T14:50:36;17.90;63.90
53978;DHT22;39886;47.984;-1.586;2024-01-27T14:53:02;18.00;64.00
53978;DHT22;39886;47.984;-1.586;2024-01-27T14:55:27;17.90;63.90
53978;DHT22;39886;47.984;-1.586;2024-01-27T14:57:55;18.00;63.80
53978;DHT22;39886;47.984;-1.586;2024-01-27T15:00:21;17.90;63.90
53978;DHT22;39886;47.984;-1.586;2024-01-27T15:02:46;18.00;63.90
53978;DHT22;39886;47.984;-1.586;2024-01-27T15:05:13;18.00;63.80
53978;DHT22;39886;47.984;-1.586;2024-01-27T15:07:38;17.90;63.80